Montpelier, Mississippi
Current Conditions -  °F | °C
As of 8:15 AM on Thursday 27 Nov 2014 (Local Time) from KSTF Reporting Station
Scattered Clouds Scattered Clouds  
Wind Chill:   Ceiling: Unl
Heat Index:   Visibility: NA
Dew Point:   Wind: 8mph
Humidity: 81%   Direction: 320°NW
Pressure: 30.44"   Gusts: NA
Location:  33.72°N, 88.95°W
Report Text: KSTF 271415Z AUTO 32007KT SCT030 03/00 A3044 RMK AO2 PWINO
Loading
Personal Weather Stations






























Interactive Weather Map New forecast layout! Learn more

10-Day Weather Forecast

Advertisements
Track Severe Weather on mobile